Time;durP1;ratioP1;P1;durP2;ratioP2;P2;SDS_P1;SDS_P2;PMS_P1;PMS_P2;Temp;Humidity;BMP_temperature;BMP_pressure;BME280_temperature;BME280_humidity;BME280_pressure;Samples;Min_cycle;Max_cycle;Signal;HPM_P1;HPM_P2
2021/03/19 00:01:13;;;;;;;10.10;5.80;;;6.40;99.90;;;;;;5093375;28;20044;-75
2021/03/19 00:03:39;;;;;;;14.88;7.07;;;6.40;99.90;;;;;;5092326;28;20040;-75
2021/03/19 00:06:05;;;;;;;12.57;6.95;;;6.30;99.90;;;;;;5093564;28;20039;-74
2021/03/19 00:08:31;;;;;;;9.05;5.45;;;6.30;99.90;;;;;;5093492;28;20035;-75
2021/03/19 00:10:57;;;;;;;14.38;6.30;;;6.30;99.90;;;;;;5093365;28;20020;-75
2021/03/19 00:13:23;;;;;;;10.38;6.28;;;6.30;99.90;;;;;;5091201;28;20032;-75
2021/03/19 00:15:49;;;;;;;11.60;6.55;;;6.30;99.90;;;;;;5093510;28;20035;-75
2021/03/19 00:18:16;;;;;;;12.75;6.07;;;6.30;99.90;;;;;;5093374;28;20157;-76
2021/03/19 00:20:45;;;;;;;12.18;7.10;;;6.20;99.90;;;;;;5093365;28;20036;-75
2021/03/19 00:23:11;;;;;;;12.20;6.22;;;6.20;99.90;;;;;;5093358;28;20034;-74
2021/03/19 00:25:38;;;;;;;12.05;6.65;;;6.20;99.90;;;;;;5093218;28;20071;-75
2021/03/19 00:28:05;;;;;;;12.75;7.07;;;6.20;99.90;;;;;;5093610;28;20024;-75
2021/03/19 00:30:32;;;;;;;10.38;6.32;;;6.20;99.90;;;;;;5092012;28;20024;-75
2021/03/19 00:32:58;;;;;;;10.85;6.13;;;6.20;99.90;;;;;;5091691;28;20496;-75
2021/03/19 00:35:25;;;;;;;9.82;5.78;;;6.20;99.90;;;;;;5092977;28;20089;-75
2021/03/19 00:37:51;;;;;;;14.10;7.00;;;6.20;99.90;;;;;;5093052;28;20024;-75
2021/03/19 00:40:17;;;;;;;11.77;6.45;;;6.20;99.90;;;;;;5092897;28;20063;-76
2021/03/19 00:42:44;;;;;;;12.95;6.65;;;6.20;99.90;;;;;;5093003;28;20028;-74
2021/03/19 00:45:13;;;;;;;10.90;6.28;;;6.20;99.90;;;;;;5092786;28;20043;-75
2021/03/19 00:47:39;;;;;;;10.50;6.57;;;6.20;99.90;;;;;;5092930;28;20020;-75
2021/03/19 00:50:10;;;;;;;11.57;6.75;;;6.20;99.90;;;;;;5092702;28;20028;-75
2021/03/19 00:52:37;;;;;;;11.68;6.38;;;6.20;99.90;;;;;;5092835;28;20028;-74
2021/03/19 00:55:06;;;;;;;10.98;6.20;;;6.20;99.90;;;;;;5092532;28;20058;-75
2021/03/19 00:57:32;;;;;;;10.18;6.47;;;6.30;99.90;;;;;;5092591;28;20095;-75
2021/03/19 00:59:58;;;;;;;7.57;5.80;;;6.40;99.90;;;;;;5092631;28;20055;-75
2021/03/19 01:02:24;;;;;;;11.35;6.43;;;6.40;99.90;;;;;;5092739;28;20020;-77
2021/03/19 01:04:50;;;;;;;11.05;6.35;;;6.50;99.90;;;;;;5092552;28;20035;-76
2021/03/19 01:07:16;;;;;;;11.10;6.05;;;6.60;99.90;;;;;;5092617;28;20088;-75
2021/03/19 01:09:42;;;;;;;9.63;6.32;;;6.50;99.90;;;;;;5092596;28;20052;-75
2021/03/19 01:12:08;;;;;;;13.90;6.32;;;6.70;99.90;;;;;;5092432;28;20052;-77
2021/03/19 01:14:34;;;;;;;9.55;5.00;;;6.80;99.90;;;;;;5092578;28;20043;-75
2021/03/19 01:17:00;;;;;;;9.82;5.60;;;6.80;99.90;;;;;;5092420;28;20558;-76
2021/03/19 01:19:26;;;;;;;8.43;5.35;;;6.90;99.90;;;;;;5091340;28;20025;-76
2021/03/19 01:21:52;;;;;;;11.25;5.88;;;6.90;99.90;;;;;;5092344;28;20437;-77
2021/03/19 01:24:18;;;;;;;12.02;5.32;;;6.80;99.90;;;;;;5092146;28;20507;-77
2021/03/19 01:26:44;;;;;;;11.60;6.40;;;6.80;99.90;;;;;;5078516;28;20032;-75
2021/03/19 01:29:10;;;;;;;10.40;5.60;;;6.80;99.90;;;;;;5096578;28;20032;-76
2021/03/19 01:31:36;;;;;;;11.77;6.00;;;6.90;99.90;;;;;;5096510;28;20463;-77
2021/03/19 01:34:02;;;;;;;9.00;5.97;;;6.80;99.90;;;;;;5096395;28;20036;-75
2021/03/19 01:36:28;;;;;;;10.80;6.35;;;6.70;99.90;;;;;;5096368;28;20035;-75
2021/03/19 01:38:55;;;;;;;10.00;5.80;;;6.70;99.90;;;;;;5094992;28;20036;-74
2021/03/19 01:41:21;;;;;;;8.80;5.07;;;6.70;99.90;;;;;;5096298;28;20469;-74
2021/03/19 01:43:59;;;;;;;7.95;4.78;;;6.50;99.90;;;;;;5098166;28;20031;-75
2021/03/19 01:47:02;;;;;;;10.98;5.40;;;6.60;99.90;;;;;;5096284;28;20146;-75
2021/03/19 01:50:06;;;;;;;8.40;5.40;;;6.50;99.90;;;;;;5096188;28;20020;-75
2021/03/19 01:53:09;;;;;;;7.30;4.75;;;6.50;99.90;;;;;;5094733;28;20036;-74
2021/03/19 01:56:12;;;;;;;9.40;5.15;;;6.50;99.90;;;;;;5096051;28;20111;-75
2021/03/19 01:59:16;;;;;;;12.43;5.55;;;6.30;99.90;;;;;;5094891;28;20043;-75
2021/03/19 02:02:19;;;;;;;10.15;5.13;;;6.30;99.90;;;;;;5095871;28;20035;-75
2021/03/19 02:05:22;;;;;;;8.68;5.20;;;6.10;99.90;;;;;;5095799;28;20024;-75
2021/03/19 02:08:26;;;;;;;8.68;5.00;;;6.10;99.90;;;;;;5095658;28;20034;-77
2021/03/19 02:11:29;;;;;;;7.93;4.20;;;6.00;99.90;;;;;;5095711;28;20028;-77
2021/03/19 02:14:33;;;;;;;8.68;4.55;;;5.90;99.90;;;;;;5095547;28;20063;-77
2021/03/19 02:17:36;;;;;;;8.27;4.10;;;5.90;99.90;;;;;;5094358;28;20028;-75
2021/03/19 02:20:40;;;;;;;9.20;4.28;;;5.90;99.90;;;;;;5095685;28;20038;-77
2021/03/19 02:23:43;;;;;;;7.93;4.25;;;5.90;99.90;;;;;;5094309;28;20032;-77
2021/03/19 02:26:47;;;;;;;7.22;3.92;;;6.00;99.90;;;;;;5095582;28;20082;-75
2021/03/19 02:29:50;;;;;;;7.35;4.20;;;6.00;99.90;;;;;;5095406;28;20035;-77
2021/03/19 02:32:20;;;;;;;6.45;3.67;;;6.00;99.90;;;;;;5094256;28;20089;-77
2021/03/19 02:34:49;;;;;;;7.57;3.60;;;6.00;99.90;;;;;;5095162;28;20446;-74
2021/03/19 02:37:18;;;;;;;5.57;3.33;;;6.00;99.90;;;;;;5094275;28;20020;-76
2021/03/19 02:39:45;;;;;;;6.05;3.97;;;6.00;99.90;;;;;;5095401;28;20074;-75
2021/03/19 02:42:13;;;;;;;6.22;3.38;;;6.10;99.90;;;;;;5093937;28;20027;-77
2021/03/19 02:44:39;;;;;;;5.70;3.45;;;6.10;99.90;;;;;;5095167;28;20028;-77
2021/03/19 02:47:05;;;;;;;5.95;3.85;;;6.00;99.90;;;;;;5095037;28;20061;-75
2021/03/19 02:49:32;;;;;;;7.22;3.38;;;6.10;99.90;;;;;;5094996;28;20032;-75
2021/03/19 02:51:58;;;;;;;6.60;3.60;;;6.10;99.90;;;;;;5093614;28;20121;-76
2021/03/19 02:54:24;;;;;;;6.55;3.35;;;6.20;99.90;;;;;;5094905;28;20036;-74
2021/03/19 02:56:51;;;;;;;6.05;3.15;;;6.20;99.90;;;;;;5094937;28;20046;-75
2021/03/19 02:59:17;;;;;;;6.07;3.60;;;6.20;99.90;;;;;;5094262;28;20050;-75
2021/03/19 03:01:44;;;;;;;11.63;3.60;;;6.30;99.90;;;;;;5095079;28;20083;-75
2021/03/19 03:04:13;;;;;;;7.50;3.55;;;6.30;99.90;;;;;;5094601;28;20032;-75
2021/03/19 03:06:44;;;;;;;6.00;3.58;;;6.30;99.90;;;;;;5094702;28;20020;-75
2021/03/19 03:09:13;;;;;;;7.35;3.70;;;6.30;99.90;;;;;;5094463;28;20035;-75
2021/03/19 03:11:39;;;;;;;6.53;3.83;;;6.30;99.90;;;;;;5094569;28;20052;-75
2021/03/19 03:14:07;;;;;;;9.05;4.10;;;6.40;99.90;;;;;;5094340;28;20481;-75
2021/03/19 03:16:34;;;;;;;7.78;4.07;;;6.30;99.90;;;;;;5093226;28;20024;-74
2021/03/19 03:19:00;;;;;;;9.77;3.63;;;6.30;99.90;;;;;;5094520;28;20028;-75
2021/03/19 03:21:26;;;;;;;7.53;4.07;;;6.30;99.90;;;;;;5094311;28;20389;-75
2021/03/19 03:23:52;;;;;;;13.45;4.47;;;6.30;99.90;;;;;;5094261;28;20396;-75
2021/03/19 03:26:18;;;;;;;7.72;4.10;;;6.20;99.90;;;;;;5094339;28;20035;-74
2021/03/19 03:28:44;;;;;;;11.07;5.07;;;6.20;99.90;;;;;;5092791;28;20100;-75
2021/03/19 03:31:10;;;;;;;5.55;3.20;;;6.20;99.90;;;;;;5092907;28;20101;-77
2021/03/19 03:33:36;;;;;;;6.60;3.97;;;6.10;99.90;;;;;;5076051;28;20038;-75
2021/03/19 03:36:03;;;;;;;7.50;4.03;;;6.10;99.90;;;;;;5094009;28;20085;-75
2021/03/19 03:38:29;;;;;;;7.88;4.00;;;6.10;99.90;;;;;;5094149;28;20467;-75
2021/03/19 03:40:55;;;;;;;8.50;4.18;;;6.00;99.90;;;;;;5093935;28;20024;-75
2021/03/19 03:43:22;;;;;;;7.85;3.65;;;6.00;99.90;;;;;;5093984;28;20097;-75
2021/03/19 03:45:49;;;;;;;8.00;4.57;;;6.00;99.90;;;;;;5092532;28;20032;-75
2021/03/19 03:48:18;;;;;;;10.48;4.72;;;6.00;99.90;;;;;;5093962;28;20114;-76
2021/03/19 03:50:45;;;;;;;8.00;4.65;;;6.00;99.90;;;;;;5093979;28;20023;-74
2021/03/19 03:53:13;;;;;;;8.43;4.65;;;6.00;99.90;;;;;;5093855;28;20035;-75
2021/03/19 03:55:40;;;;;;;7.95;4.13;;;6.00;99.90;;;;;;5093715;28;20036;-75
2021/03/19 03:58:06;;;;;;;9.32;4.57;;;5.90;99.90;;;;;;5093449;28;20024;-75
2021/03/19 04:00:33;;;;;;;11.40;5.80;;;5.90;99.90;;;;;;5093470;28;20516;-75
2021/03/19 04:03:00;;;;;;;9.27;4.53;;;6.00;99.90;;;;;;5093525;28;20035;-74
2021/03/19 04:05:31;;;;;;;5.80;3.88;;;5.90;99.90;;;;;;5093581;28;20028;-74
2021/03/19 04:07:57;;;;;;;8.60;4.07;;;5.90;99.90;;;;;;5093508;28;20499;-75
2021/03/19 04:10:24;;;;;;;7.65;3.95;;;5.90;99.90;;;;;;5092417;28;20032;-75
2021/03/19 04:12:51;;;;;;;7.80;4.07;;;5.90;99.90;;;;;;5093323;28;20024;-75
2021/03/19 04:15:19;;;;;;;7.05;3.75;;;6.00;99.90;;;;;;5093885;28;20042;-75
2021/03/19 04:17:46;;;;;;;7.75;4.28;;;6.00;99.90;;;;;;5093506;28;20051;-75
2021/03/19 04:20:17;;;;;;;5.25;2.95;;;6.00;99.90;;;;;;5093247;28;20036;-75
2021/03/19 04:22:42;;;;;;;7.75;4.05;;;6.00;99.90;;;;;;5093286;28;20104;-74
2021/03/19 04:25:10;;;;;;;6.65;4.07;;;6.00;99.90;;;;;;5091953;28;20024;-74
2021/03/19 04:27:43;;;;;;;9.43;3.92;;;6.00;99.90;;;;;;5093237;28;20030;-75
2021/03/19 04:30:15;;;;;;;;;;;6.00;99.90;;;;;;5093410;28;20020;-74
2021/03/19 04:32:41;;;;;;;5.85;3.78;;;6.00;99.90;;;;;;5093104;28;19922;-75
2021/03/19 04:35:07;;;;;;;7.32;3.70;;;6.10;99.90;;;;;;5092916;28;20044;-75
2021/03/19 04:37:33;;;;;;;6.45;3.67;;;6.10;99.90;;;;;;5092004;28;20031;-74
2021/03/19 04:39:59;;;;;;;7.38;3.10;;;6.10;99.90;;;;;;5092881;28;20024;-74
2021/03/19 04:42:26;;;;;;;13.13;4.10;;;6.10;99.90;;;;;;5093015;28;20175;-75
2021/03/19 04:44:53;;;;;;;6.63;3.08;;;6.00;99.90;;;;;;5092866;28;20046;-74
2021/03/19 04:47:19;;;;;;;13.00;4.50;;;6.00;99.90;;;;;;5091531;28;20040;-74
2021/03/19 04:49:44;;;;;;;4.50;2.78;;;6.00;99.90;;;;;;5092852;28;20016;-75
2021/03/19 04:52:10;;;;;;;10.73;3.80;;;5.90;99.90;;;;;;5092966;28;20460;-77
2021/03/19 04:54:36;;;;;;;8.15;4.00;;;5.90;99.90;;;;;;5092722;28;20040;-78
2021/03/19 04:57:03;;;;;;;7.20;3.20;;;5.90;99.90;;;;;;5092734;28;20435;-77
2021/03/19 04:59:37;;;;;;;6.45;3.13;;;5.90;99.90;;;;;;5092074;28;20055;-75
2021/03/19 05:02:03;;;;;;;5.55;3.28;;;5.80;99.90;;;;;;5092659;28;20024;-76
2021/03/19 05:04:30;;;;;;;7.90;3.45;;;5.80;99.90;;;;;;5092645;28;20028;-77
2021/03/19 05:07:04;;;;;;;7.30;3.42;;;5.80;99.90;;;;;;5092540;28;20032;-75
2021/03/19 05:09:31;;;;;;;6.65;2.90;;;5.80;99.90;;;;;;5092819;28;20377;-77
2021/03/19 05:11:58;;;;;;;6.30;3.03;;;5.80;99.90;;;;;;5091212;28;20021;-74
2021/03/19 05:14:24;;;;;;;4.47;2.70;;;5.70;99.90;;;;;;5092466;28;20040;-77
2021/03/19 05:16:51;;;;;;;5.65;2.63;;;5.70;99.90;;;;;;5092690;28;20106;-78
2021/03/19 05:19:17;;;;;;;4.68;2.63;;;5.60;99.90;;;;;;5092540;28;20032;-76
2021/03/19 05:21:44;;;;;;;5.72;2.97;;;5.70;99.90;;;;;;5092551;28;20038;-78
2021/03/19 05:24:11;;;;;;;4.10;2.50;;;5.70;99.90;;;;;;5092555;28;20028;-77
2021/03/19 05:26:39;;;;;;;5.72;2.42;;;5.70;99.90;;;;;;5092418;28;20020;-76
2021/03/19 05:29:07;;;;;;;4.65;2.53;;;5.80;99.90;;;;;;5092444;28;20031;-75
2021/03/19 05:31:33;;;;;;;3.10;2.10;;;5.90;99.90;;;;;;5092738;28;20035;-76
2021/03/19 05:33:58;;;;;;;4.75;2.38;;;5.80;99.90;;;;;;5092320;28;20032;-75
2021/03/19 05:36:27;;;;;;;4.10;2.20;;;5.80;99.90;;;;;;5092365;28;20035;-75
2021/03/19 05:38:54;;;;;;;6.57;2.47;;;6.00;99.90;;;;;;5074180;28;20040;-76
2021/03/19 05:41:22;;;;;;;3.92;2.42;;;6.00;99.90;;;;;;5092291;28;20388;-76
2021/03/19 05:44:01;;;;;;;5.55;2.42;;;6.10;99.90;;;;;;5092654;28;20028;-76
2021/03/19 05:46:48;;;;;;;3.42;1.98;;;6.10;99.90;;;;;;5091105;28;20484;-75
2021/03/19 05:49:24;;;;;;;4.80;2.80;;;6.20;99.90;;;;;;5092140;28;20358;-75
2021/03/19 05:51:56;;;;;;;4.18;2.40;;;6.30;99.90;;;;;;5092166;28;20438;-75
2021/03/19 05:54:38;;;;;;;4.40;2.60;;;6.30;99.90;;;;;;5092126;28;20043;-76
2021/03/19 05:57:04;;;;;;;4.82;2.13;;;6.30;99.90;;;;;;5090798;28;20099;-76
2021/03/19 05:59:31;;;;;;;5.07;2.77;;;6.30;99.90;;;;;;5073925;28;20043;-76
2021/03/19 06:01:57;;;;;;;4.57;2.42;;;6.40;99.90;;;;;;5092017;28;20761;-75
2021/03/19 06:04:26;;;;;;;4.85;2.08;;;6.40;99.90;;;;;;5092129;28;20028;-75
2021/03/19 06:06:56;;;;;;;4.13;2.40;;;6.50;99.90;;;;;;5091865;28;20032;-76
2021/03/19 06:09:27;;;;;;;5.80;2.08;;;6.60;99.90;;;;;;5092007;28;20024;-75
2021/03/19 06:11:57;;;;;;;6.30;2.40;;;6.70;99.90;;;;;;5093973;28;20021;-75
2021/03/19 06:14:25;;;;;;;3.42;1.88;;;6.80;99.90;;;;;;5095689;28;20032;-75
2021/03/19 06:16:58;;;;;;;4.15;1.90;;;6.80;99.90;;;;;;5094368;28;20020;-75
2021/03/19 06:19:33;;;;;;;3.30;1.75;;;6.90;99.90;;;;;;5095712;28;20472;-75
2021/03/19 06:22:13;;;;;;;3.92;1.92;;;6.90;99.90;;;;;;5095640;28;20056;-75
2021/03/19 06:24:39;;;;;;;4.38;2.60;;;7.00;99.90;;;;;;5095547;28;20085;-76
2021/03/19 06:27:19;;;;;;;4.25;2.28;;;7.10;99.90;;;;;;5095404;28;20119;-75
2021/03/19 06:29:49;;;;;;;3.22;1.85;;;7.10;99.90;;;;;;5095545;28;20043;-75
2021/03/19 06:32:21;;;;;;;3.53;2.00;;;7.10;99.90;;;;;;5094243;28;20024;-76
2021/03/19 06:35:06;;;;;;;4.03;1.90;;;7.20;99.90;;;;;;5093958;28;20044;-76
2021/03/19 06:37:36;;;;;;;3.55;1.92;;;7.30;99.90;;;;;;5094140;28;20032;-76
2021/03/19 06:40:32;;;;;;;4.55;1.80;;;7.40;99.90;;;;;;5095169;28;20028;-75
2021/03/19 06:43:18;;;;;;;3.45;1.88;;;7.50;99.90;;;;;;5095327;28;20150;-75
2021/03/19 06:46:12;;;;;;;2.58;1.60;;;7.60;99.90;;;;;;5095817;28;20032;-75
2021/03/19 06:48:42;;;;;;;5.35;1.85;;;7.60;99.90;;;;;;5040019;28;20083;-76
2021/03/19 06:51:25;;;;;;;2.60;1.35;;;7.70;99.90;;;;;;5093679;28;20477;-76
2021/03/19 06:54:23;;;;;;;2.92;1.48;;;7.90;99.90;;;;;;5094884;28;20044;-75
2021/03/19 06:57:13;;;;;;;4.15;1.70;;;7.90;99.90;;;;;;5082711;28;20043;-75
2021/03/19 06:59:51;;;;;;;2.65;1.60;;;8.00;99.90;;;;;;5094719;28;20052;-75
2021/03/19 07:02:32;;;;;;;3.90;1.70;;;8.10;99.90;;;;;;5094778;28;20379;-75
2021/03/19 07:05:35;;;;;;;4.65;1.98;;;8.20;99.90;;;;;;5094742;28;20093;-75
2021/03/19 07:08:28;;;;;;;2.40;1.45;;;8.20;99.90;;;;;;5093442;28;20504;-76
2021/03/19 07:11:40;;;;;;;4.78;2.38;;;8.30;99.90;;;;;;5094602;28;20028;-75
2021/03/19 07:14:12;;;;;;;3.33;2.00;;;8.40;99.90;;;;;;5094436;28;20027;-75
2021/03/19 07:17:15;;;;;;;2.70;1.42;;;8.40;99.90;;;;;;5094564;28;20534;-75
2021/03/19 07:19:50;;;;;;;2.03;1.45;;;8.50;99.90;;;;;;5094497;28;20059;-76
2021/03/19 07:22:31;;;;;;;3.25;1.50;;;8.60;99.90;;;;;;5092902;28;20036;-75
2021/03/19 07:25:19;;;;;;;3.67;1.33;;;8.60;99.90;;;;;;5094499;28;20042;-75
2021/03/19 07:28:03;;;;;;;1.95;1.55;;;8.70;99.90;;;;;;5094635;28;20028;-76
2021/03/19 07:30:52;;;;;;;2.97;1.58;;;8.70;99.90;;;;;;5094386;28;20027;-77
2021/03/19 07:33:56;;;;;;;2.70;1.40;;;8.80;99.90;;;;;;5053867;28;20118;-76
2021/03/19 07:36:28;;;;;;;;;;;8.80;99.90;;;;;;5032168;28;20037;-75
2021/03/19 07:39:30;;;;;;;2.47;1.90;;;8.90;99.90;;;;;;5031771;28;19913;-75
2021/03/19 07:42:20;;;;;;;4.07;1.42;;;9.00;99.90;;;;;;5078390;28;20063;-74
2021/03/19 07:44:58;;;;;;;2.00;1.20;;;9.10;99.90;;;;;;5093881;28;20020;-76
2021/03/19 07:47:27;;;;;;;2.53;1.33;;;9.20;99.90;;;;;;5092712;28;20024;-78
2021/03/19 07:50:05;;;;;;;3.08;1.15;;;9.30;99.90;;;;;;5075689;28;20031;-77
2021/03/19 07:52:36;;;;;;;2.95;1.30;;;9.40;99.90;;;;;;5093905;28;20032;-75
2021/03/19 07:55:15;;;;;;;1.30;0.90;;;9.40;99.40;;;;;;5093603;28;20089;-76
2021/03/19 07:57:44;;;;;;;3.55;1.23;;;9.40;99.20;;;;;;5092711;28;20085;-75
2021/03/19 08:00:32;;;;;;;1.73;1.10;;;9.50;99.90;;;;;;5093585;28;20048;-76
2021/03/19 08:03:01;;;;;;;2.00;1.23;;;9.60;99.40;;;;;;5097694;28;20032;-77
2021/03/19 08:05:39;;;;;;;3.00;1.50;;;9.70;99.70;;;;;;5092308;28;20024;-76
2021/03/19 08:08:35;;;;;;;2.80;1.48;;;9.80;99.50;;;;;;5093557;28;20023;-75
2021/03/19 08:11:18;;;;;;;1.88;1.15;;;9.80;99.90;;;;;;5090165;28;20028;-75
2021/03/19 08:14:13;;;;;;;2.03;1.42;;;9.90;99.90;;;;;;5092343;28;20054;-75
2021/03/19 08:16:54;;;;;;;3.05;2.03;;;10.00;99.80;;;;;;5092063;28;20102;-76
2021/03/19 08:19:54;;;;;;;4.25;2.25;;;10.00;99.90;;;;;;5093453;28;20429;-75
2021/03/19 08:22:36;;;;;;;2.03;1.30;;;10.10;99.90;;;;;;5087687;28;20032;-75
2021/03/19 08:25:18;;;;;;;2.42;1.60;;;10.30;99.10;;;;;;5093223;28;20099;-76
2021/03/19 08:27:46;;;;;;;7.10;1.95;;;10.30;98.50;;;;;;5091885;28;20028;-76
2021/03/19 08:30:23;;;;;;;1.83;1.23;;;10.30;97.80;;;;;;5093130;28;20034;-75
2021/03/19 08:33:07;;;;;;;4.65;1.20;;;10.50;99.10;;;;;;5091705;28;20042;-75
2021/03/19 08:35:37;;;;;;;3.45;1.20;;;10.50;98.50;;;;;;5092456;28;20032;-75
2021/03/19 08:38:28;;;;;;;2.08;1.02;;;10.60;98.20;;;;;;5091672;28;20032;-76
2021/03/19 08:41:02;;;;;;;1.38;0.90;;;10.60;97.30;;;;;;5091598;28;20035;-75
2021/03/19 08:43:37;;;;;;;3.42;1.35;;;10.70;95.90;;;;;;5093102;28;20070;-75
2021/03/19 08:46:16;;;;;;;2.45;1.48;;;10.70;96.30;;;;;;5092944;28;20500;-75
2021/03/19 08:48:47;;;;;;;1.38;1.10;;;10.80;97.10;;;;;;5091618;28;20067;-78
2021/03/19 08:51:20;;;;;;;1.17;1.02;;;10.80;96.70;;;;;;5092843;28;20028;-78
2021/03/19 08:54:15;;;;;;;1.77;1.25;;;11.00;96.60;;;;;;5092795;28;20023;-78
2021/03/19 08:56:44;;;;;;;1.70;1.30;;;11.20;95.80;;;;;;5091658;28;20399;-78
2021/03/19 08:59:11;;;;;;;2.97;1.48;;;11.30;94.40;;;;;;5092525;28;20023;-74
2021/03/19 09:01:54;;;;;;;2.15;1.17;;;11.50;94.40;;;;;;5091567;28;20107;-72
2021/03/19 09:04:57;;;;;;;2.42;1.40;;;11.60;94.40;;;;;;5091396;28;20106;-76
2021/03/19 09:07:35;;;;;;;2.78;1.60;;;11.70;93.70;;;;;;5092661;28;20486;-72
2021/03/19 09:10:27;;;;;;;1.80;1.13;;;11.80;93.40;;;;;;5091361;28;20024;-76
2021/03/19 09:12:56;;;;;;;2.75;1.00;;;11.80;93.30;;;;;;5092455;28;20066;-72
2021/03/19 09:15:23;;;;;;;2.30;1.40;;;12.10;93.10;;;;;;5092458;28;20039;-72
2021/03/19 09:17:50;;;;;;;2.42;1.30;;;12.30;93.80;;;;;;5101479;28;20369;-75
2021/03/19 09:20:40;;;;;;;1.50;1.20;;;12.40;92.40;;;;;;5092875;28;20397;-75
2021/03/19 09:23:12;;;;;;;2.45;1.20;;;12.30;92.80;;;;;;5092451;28;20032;-76
2021/03/19 09:25:57;;;;;;;2.17;1.20;;;12.40;92.10;;;;;;5092421;28;20028;-76
2021/03/19 09:28:55;;;;;;;1.80;1.25;;;12.40;91.50;;;;;;5092406;28;20028;-75
2021/03/19 09:31:24;;;;;;;1.70;1.17;;;12.60;92.00;;;;;;5092524;28;20020;-75
2021/03/19 09:33:50;;;;;;;1.70;1.00;;;12.90;92.00;;;;;;5092272;28;20024;-75
2021/03/19 09:36:51;;;;;;;2.35;1.38;;;13.00;92.20;;;;;;5092563;28;20027;-73
2021/03/19 09:39:52;;;;;;;1.95;1.20;;;13.00;91.70;;;;;;5092337;28;20436;-76
2021/03/19 09:42:18;;;;;;;2.42;1.20;;;12.90;91.70;;;;;;5092376;28;20035;-76
2021/03/19 13:13:01;;;;;;;7.20;5.00;;;14.40;90.40;;;;;;5026086;28;20367;-82
2021/03/19 13:15:30;;;;;;;6.35;2.25;;;13.80;92.20;;;;;;5026146;28;20033;-83
2021/03/19 13:17:57;;;;;;;4.47;2.80;;;13.80;91.80;;;;;;5026163;28;20465;-80
2021/03/19 13:20:24;;;;;;;5.10;2.75;;;13.80;92.20;;;;;;5026265;28;20038;-78
2021/03/19 13:22:50;;;;;;;5.10;3.25;;;13.60;92.00;;;;;;5026115;28;20071;-82
2021/03/19 13:25:23;;;;;;;8.35;5.57;;;13.60;92.50;;;;;;5026304;28;20034;-81
2021/03/19 13:27:52;;;;;;;7.38;4.20;;;13.50;92.90;;;;;;5094447;28;20461;-78
2021/03/19 13:30:25;;;;;;;9.43;4.82;;;13.40;93.00;;;;;;5025937;28;20539;-77
2021/03/19 13:32:52;;;;;;;4.23;3.73;;;13.40;93.10;;;;;;5028674;28;20090;-76
2021/03/19 13:35:24;;;;;;;4.22;2.00;;;13.40;93.10;;;;;;5094430;28;20273;-83
2021/03/19 13:37:50;;;;;;;3.85;2.47;;;13.10;92.30;;;;;;5094763;28;20040;-78
2021/03/19 13:40:20;;;;;;;4.72;2.03;;;13.00;92.60;;;;;;5094315;28;20029;-82
2021/03/19 13:42:45;;;;;;;7.53;3.15;;;13.00;93.30;;;;;;5094456;28;20046;-77
2021/03/19 13:45:12;;;;;;;4.18;1.80;;;13.00;93.80;;;;;;5025838;28;20912;-77
2021/03/19 13:47:38;;;;;;;5.85;3.53;;;12.80;93.50;;;;;;5025830;28;20483;-77
2021/03/19 13:50:07;;;;;;;8.27;5.30;;;12.90;93.80;;;;;;5025775;28;20075;-79
2021/03/19 13:52:33;;;;;;;6.07;4.15;;;12.90;93.90;;;;;;5025708;28;20137;-82
2021/03/19 13:54:59;;;;;;;6.63;3.22;;;12.90;93.80;;;;;;5025688;28;20113;-77
2021/03/19 13:57:28;;;;;;;6.30;4.07;;;12.90;93.70;;;;;;5025693;28;20079;-82
2021/03/19 13:59:55;;;;;;;6.70;4.05;;;12.80;93.90;;;;;;5025837;28;20017;-79
2021/03/19 14:02:22;;;;;;;5.72;4.00;;;12.80;93.70;;;;;;5094030;28;20026;-82
2021/03/19 14:04:49;;;;;;;8.55;3.63;;;12.70;93.80;;;;;;5025727;28;20406;-80
2021/03/19 14:07:16;;;;;;;2.38;1.80;;;12.70;94.20;;;;;;5025325;28;20108;-82
2021/03/19 14:09:41;;;;;;;2.28;1.33;;;12.60;93.80;;;;;;5025450;28;20025;-82
2021/03/19 14:12:08;;;;;;;3.53;1.42;;;12.30;94.00;;;;;;5021902;28;20054;-82
2021/03/19 14:14:34;;;;;;;1.52;1.10;;;12.20;94.10;;;;;;5012306;28;20023;-80
2021/03/19 14:17:00;;;;;;;2.78;1.80;;;12.10;94.20;;;;;;5012291;28;20100;-78
2021/03/19 14:19:27;;;;;;;3.03;1.85;;;12.10;94.40;;;;;;5012101;28;20026;-79
2021/03/19 14:21:53;;;;;;;3.15;2.00;;;12.10;94.70;;;;;;5080149;28;20044;-80
2021/03/19 14:24:19;;;;;;;6.05;3.80;;;12.10;94.70;;;;;;5012115;28;20045;-77
2021/03/19 14:26:45;;;;;;;4.05;2.30;;;12.10;94.60;;;;;;5011994;28;20030;-77
2021/03/19 14:29:11;;;;;;;6.13;2.70;;;12.10;94.60;;;;;;5011804;28;20491;-77
2021/03/19 14:31:38;;;;;;;3.30;1.55;;;12.10;94.70;;;;;;5012123;28;20038;-82
2021/03/19 14:34:05;;;;;;;1.98;1.33;;;12.00;94.80;;;;;;5080029;28;20030;-82
2021/03/19 14:36:31;;;;;;;4.13;1.50;;;11.70;94.60;;;;;;5011859;28;20022;-78
2021/03/19 14:38:58;;;;;;;3.53;2.13;;;11.70;95.20;;;;;;5011922;28;20436;-77
2021/03/19 14:41:25;;;;;;;8.57;3.28;;;11.80;95.30;;;;;;5011732;28;20030;-76
2021/03/19 14:43:51;;;;;;;3.92;2.30;;;11.80;95.50;;;;;;5011807;28;20101;-77
2021/03/19 14:46:17;;;;;;;2.05;1.70;;;11.80;96.10;;;;;;5011907;28;20083;-77
2021/03/19 14:48:52;;;;;;;5.30;2.22;;;11.80;96.70;;;;;;5018077;28;20044;-80
2021/03/19 14:51:18;;;;;;;2.78;1.60;;;11.70;97.10;;;;;;5012015;28;20041;-80
2021/03/19 14:53:46;;;;;;;3.17;1.73;;;11.70;97.90;;;;;;5012044;28;20432;-76
2021/03/19 14:56:13;;;;;;;7.60;3.40;;;11.70;99.00;;;;;;5011538;28;20033;-78
2021/03/19 14:58:40;;;;;;;5.72;2.20;;;11.70;99.90;;;;;;5011819;28;20022;-81
2021/03/19 15:01:09;;;;;;;5.10;2.15;;;11.70;99.90;;;;;;5011612;28;20478;-78
2021/03/19 15:03:35;;;;;;;4.38;1.73;;;11.60;99.90;;;;;;5011491;28;20105;-83
2021/03/19 15:06:01;;;;;;;6.20;1.80;;;11.30;99.90;;;;;;5079430;28;20120;-82
2021/03/19 15:08:29;;;;;;;3.08;2.00;;;11.20;99.90;;;;;;5011531;28;20467;-80
2021/03/19 15:10:57;;;;;;;3.65;1.90;;;11.00;99.90;;;;;;5011310;28;20137;-83
2021/03/19 15:13:24;;;;;;;3.85;2.38;;;11.00;99.90;;;;;;5011328;28;20033;-78
2021/03/19 15:15:51;;;;;;;4.03;1.70;;;10.90;99.90;;;;;;5079283;28;20037;-80
2021/03/19 15:18:20;;;;;;;2.58;1.50;;;10.90;99.90;;;;;;5079095;28;20060;-78
2021/03/19 15:20:54;;;;;;;5.00;1.67;;;10.80;99.90;;;;;;5011336;28;20026;-78
2021/03/19 15:23:24;;;;;;;4.75;2.45;;;10.80;99.90;;;;;;5011038;28;20022;-77
2021/03/19 15:25:51;;;;;;;4.97;2.20;;;10.90;99.90;;;;;;5010424;28;20057;-79
2021/03/19 15:28:18;;;;;;;6.82;2.63;;;10.90;99.90;;;;;;5011052;28;20468;-79
2021/03/19 15:30:45;;;;;;;5.10;2.53;;;11.00;99.90;;;;;;5011077;28;20038;-77
2021/03/19 15:33:11;;;;;;;7.07;3.53;;;11.00;99.90;;;;;;5010986;28;20033;-77
2021/03/19 15:35:37;;;;;;;3.90;2.78;;;11.00;99.90;;;;;;5011283;28;20054;-82
2021/03/19 15:38:04;;;;;;;5.25;3.38;;;11.00;99.90;;;;;;5011088;28;20118;-82
2021/03/19 15:40:37;;;;;;;6.07;3.10;;;11.10;99.90;;;;;;5011039;28;20033;-78
2021/03/19 15:43:03;;;;;;;;;;;11.10;99.90;;;;;;5011343;28;20472;-79
2021/03/19 15:45:30;;;;;;;7.63;4.85;;;10.90;99.90;;;;;;5010876;28;19913;-80
2021/03/19 15:47:56;;;;;;;6.28;3.08;;;10.90;99.90;;;;;;5010886;28;20026;-82
2021/03/19 15:50:31;;;;;;;3.72;2.38;;;10.70;99.90;;;;;;5078696;28;20034;-76
2021/03/19 15:52:57;;;;;;;4.68;2.63;;;10.60;99.90;;;;;;5010765;28;20042;-80
2021/03/19 15:55:24;;;;;;;4.57;2.78;;;10.40;99.90;;;;;;5010684;28;20109;-81
2021/03/19 15:57:50;;;;;;;4.60;3.17;;;10.40;99.90;;;;;;5010714;28;20040;-78
2021/03/19 16:00:17;;;;;;;4.03;2.75;;;10.30;99.90;;;;;;5010630;28;20050;-81
2021/03/19 16:02:45;;;;;;;6.80;3.20;;;10.30;99.90;;;;;;5010780;28;20075;-78
2021/03/19 16:05:12;;;;;;;8.27;2.75;;;10.30;99.90;;;;;;5011981;28;20018;-79
2021/03/19 16:07:38;;;;;;;2.97;2.38;;;10.30;99.90;;;;;;5010821;28;20459;-77
2021/03/19 16:10:06;;;;;;;6.80;3.00;;;10.30;99.90;;;;;;5010323;28;20110;-80
2021/03/19 16:12:35;;;;;;;5.70;2.15;;;10.30;99.90;;;;;;5009914;28;20057;-78
2021/03/19 16:15:01;;;;;;;4.13;2.30;;;10.40;99.90;;;;;;5077985;28;20030;-78
2021/03/19 16:17:27;;;;;;;4.40;2.58;;;10.40;99.90;;;;;;5010457;28;20099;-77
2021/03/19 16:19:53;;;;;;;4.45;2.40;;;10.40;99.90;;;;;;5010461;28;20030;-77
2021/03/19 16:22:19;;;;;;;10.38;4.30;;;10.40;99.90;;;;;;5077968;28;20670;-79
2021/03/19 16:24:45;;;;;;;8.15;4.35;;;10.50;99.90;;;;;;5010420;28;20061;-77
2021/03/19 16:27:11;;;;;;;8.80;5.28;;;10.50;99.90;;;;;;5078001;28;20018;-76
2021/03/19 16:29:37;;;;;;;9.95;4.88;;;10.60;99.90;;;;;;5010219;28;20034;-77
2021/03/19 16:32:03;;;;;;;7.20;4.03;;;10.60;99.90;;;;;;5010241;28;20069;-77
2021/03/19 16:34:29;;;;;;;5.18;3.78;;;10.60;99.90;;;;;;5010125;28;20030;-78
2021/03/19 16:36:55;;;;;;;7.10;4.00;;;10.60;99.90;;;;;;5009788;28;20030;-78
2021/03/19 16:39:21;;;;;;;7.07;4.25;;;10.60;99.90;;;;;;5009949;28;20026;-79
2021/03/19 16:41:47;;;;;;;7.03;5.25;;;10.60;99.90;;;;;;5009913;28;20029;-80
2021/03/19 16:44:13;;;;;;;7.07;5.40;;;10.60;99.90;;;;;;5009883;28;20026;-78
2021/03/19 16:46:39;;;;;;;8.00;4.53;;;10.60;99.90;;;;;;5010393;28;20483;-78
2021/03/19 16:49:06;;;;;;;6.35;4.05;;;10.50;99.90;;;;;;5010049;28;20022;-79